UDYZ/EVN METAR and TAF weather

Enter ICAO airport designator
Station Type Date Time Source
UDYZ METAR 2024/06/14 03:00 UTC NOAA

UDYZ 140300Z 00000KT 9999 NSC 19/08 Q1015 NOSIG


Station Type Date Time Source
UDYZ Decoded METAR 2024/06/14 03:00 UTC NOAA

Station name not available
Jun 13, 2024 - 11:00 PM EDT / 2024.06.14 0300 UTC
Wind: Calm:0
Visibility: greater than 7 mile(s):0
Temperature: 66 F (19 C)
Dew Point: 46 F (8 C)
Relative Humidity: 48%
Pressure (altimeter): 29.97 in. Hg (1015 hPa)
ob: UDYZ 140300Z 00000KT 9999 NSC 19/08 Q1015 NOSIG
cycle: 3

Station Type Date Time Source
UDYZ TAF 2024/06/13 18:00 UTC NOAA